Jump to content

Sign in to follow this  
Guest thscholz

Merry Christmas!

Recommended Posts

Guest thscholz

From the tropical city of Vienna (well, almost:-) ) I would like to wish you all aMerry Christmas!Greetings fromLOWW 240720Z 30018KT 9999 FEW032 BKN058 09/01 Q1010 NOSIGThomas

Share this post


Link to post

Also greetings from Vienna, 9th district! Beatiful weather today. Very warm! I was very surprised when I was buying Christmas presents...Anyway, MERRY CHRISTMAS to everyone!

Share this post


Link to post
Guest Hugo Frey

Also a merry christmas and a happy new year from the subtropical city of Zurich;-) Regards: Hugo

Share this post


Link to post
Guest gremel

Likewise "MERRY CHRISTMAS" and Happy Holidays to everybody..Regards,jack

Share this post


Link to post

Join the conversation

You can post now and register later. If you have an account, sign in now to post with your account.
Note: Your post will require moderator approval before it will be visible.

Guest
Reply to this topic...

×   Pasted as rich text.   Paste as plain text instead

  Only 75 emoji are allowed.

×   Your link has been automatically embedded.   Display as a link instead

×   Your previous content has been restored.   Clear editor

×   You cannot paste images directly. Upload or insert images from URL.

Sign in to follow this  
×
×
  • Create New...